Time;durP1;ratioP1;P1;durP2;ratioP2;P2;SDS_P1;SDS_P2;PMS_P1;PMS_P2;Temp;Humidity;BMP_temperature;BMP_pressure;BME280_temperature;BME280_humidity;BME280_pressure;Samples;Min_cycle;Max_cycle;Signal;HPM_P1;HPM_P2
2022/09/04 00:01:43;;;;;;;4.33;4.03;;;;;;;17.18;100.00;99424.06;4941294;28;20326;-91
2022/09/04 00:04:22;;;;;;;4.40;4.10;;;;;;;17.19;100.00;99431.09;4938290;28;20239;-91
2022/09/04 00:07:20;;;;;;;4.10;3.90;;;;;;;17.22;100.00;99425.16;4940542;29;20231;-91
2022/09/04 00:09:57;;;;;;;4.40;4.10;;;;;;;17.28;100.00;99429.50;4949743;29;20298;-90
2022/09/04 00:12:28;;;;;;;4.73;4.23;;;;;;;17.28;100.00;99426.78;4927442;28;20229;-90
2022/09/04 00:15:03;;;;;;;4.30;4.00;;;;;;;17.30;100.00;99419.22;4934717;29;20235;-89
2022/09/04 00:18:15;;;;;;;4.50;4.17;;;;;;;17.32;100.00;99422.47;4924288;29;20234;-94
2022/09/04 00:20:50;;;;;;;4.90;4.30;;;;;;;17.34;100.00;99420.31;4934602;28;20233;-92
2022/09/04 00:23:19;;;;;;;4.77;4.30;;;;;;;17.31;100.00;99417.34;4913603;29;20235;-91
2022/09/04 00:25:58;;;;;;;4.80;4.40;;;;;;;17.39;100.00;99420.31;4935343;29;20245;-91
2022/09/04 00:28:37;;;;;;;4.43;4.13;;;;;;;17.39;100.00;99430.34;4933935;29;20240;-91
2022/09/04 00:31:11;;;;;;;4.97;4.17;;;;;;;17.33;100.00;99429.50;4928917;29;20249;-90
2022/09/04 00:33:46;;;;;;;4.93;4.13;;;;;;;17.38;100.00;99429.53;4942846;29;20234;-90
2022/09/04 00:36:13;;;;;;;4.77;4.27;;;;;;;17.37;100.00;99432.50;4937747;28;20713;-89
2022/09/04 00:38:44;;;;;;;3.87;3.67;;;;;;;17.36;100.00;99433.56;4954218;29;20240;-88
2022/09/04 00:41:26;;;;;;;4.73;4.20;;;;;;;17.33;100.00;99432.22;4933009;29;20238;-87
2022/09/04 00:44:17;;;;;;;4.30;4.00;;;;;;;17.30;100.00;99432.75;4922122;29;20303;-89
2022/09/04 00:46:55;;;;;;;4.23;3.93;;;;;;;17.29;100.00;99433.84;4930479;29;20243;-88
2022/09/04 00:49:58;;;;;;;4.30;3.90;;;;;;;17.31;100.00;99442.50;4916433;29;20941;-87
2022/09/04 00:52:59;;;;;;;4.27;3.87;;;;;;;17.29;100.00;99441.97;4920822;29;20238;-88
2022/09/04 00:55:39;;;;;;;4.73;4.10;;;;;;;17.31;100.00;99447.13;4899866;29;20235;-87
2022/09/04 00:58:10;;;;;;;4.17;3.83;;;;;;;17.36;100.00;99447.09;4927468;29;20259;-87
2022/09/04 01:00:37;;;;;;;4.43;4.13;;;;;;;17.34;100.00;99443.88;4929944;29;20235;-86
2022/09/04 01:03:17;;;;;;;4.23;3.93;;;;;;;17.35;100.00;99445.50;4925804;29;20330;-87
2022/09/04 01:05:48;;;;;;;4.80;4.40;;;;;;;17.33;100.00;99445.75;4930436;29;20247;-86
2022/09/04 01:08:39;;;;;;;4.17;3.80;;;;;;;17.36;100.00;99455.22;4928138;29;20775;-88
2022/09/04 01:11:43;;;;;;;4.50;4.10;;;;;;;17.37;100.00;99454.16;4917487;29;20255;-91
2022/09/04 01:14:38;;;;;;;4.23;3.93;;;;;;;17.36;100.00;99456.03;4915398;29;20392;-90
2022/09/04 01:17:18;;;;;;;4.40;4.00;;;;;;;17.35;100.00;99457.16;4914794;29;20231;-90
2022/09/04 01:19:55;;;;;;;4.20;3.80;;;;;;;17.35;100.00;99457.16;4931609;29;20276;-90
2022/09/04 01:22:46;;;;;;;4.40;4.07;;;;;;;17.36;100.00;99466.88;4905232;29;20235;-92
2022/09/04 01:25:28;;;;;;;4.33;4.00;;;;;;;17.34;100.00;99455.50;4937241;29;20239;-93
2022/09/04 01:28:03;;;;;;;4.33;4.03;;;;;;;17.29;100.00;99458.22;4927434;29;20250;-92
2022/09/04 01:30:36;;;;;;;4.30;4.00;;;;;;;17.30;100.00;99453.63;4919538;29;20239;-91
2022/09/04 01:33:29;;;;;;;4.60;4.20;;;;;;;17.31;100.00;99449.84;4906499;29;20235;-91
2022/09/04 01:36:08;;;;;;;4.97;3.83;;;;;;;17.29;100.00;99454.69;4924730;29;20236;-90
2022/09/04 01:38:49;;;;;;;4.30;4.00;;;;;;;17.25;100.00;99451.72;4913713;29;20252;-88
2022/09/04 01:41:33;;;;;;;4.10;3.80;;;;;;;17.25;100.00;99454.41;4906171;29;20248;-88
2022/09/04 01:44:07;;;;;;;4.30;4.00;;;;;;;17.29;100.00;99457.41;4926062;29;20242;-88
2022/09/04 01:47:00;;;;;;;4.27;3.97;;;;;;;17.25;100.00;99446.28;4953259;29;20674;-91
2022/09/04 01:49:37;;;;;;;4.30;4.00;;;;;;;17.24;100.00;99454.66;4938437;29;20251;-91
2022/09/04 01:52:06;;;;;;;4.40;4.10;;;;;;;17.24;100.00;99455.50;4939255;28;20239;-90
2022/09/04 01:54:42;;;;;;;4.60;4.30;;;;;;;17.27;100.00;99452.22;4951408;29;20263;-91
2022/09/04 01:57:37;;;;;;;4.30;4.00;;;;;;;17.23;100.00;99434.91;4942356;29;20241;-91
2022/09/04 02:00:11;;;;;;;4.37;3.97;;;;;;;17.24;100.00;99454.66;4969897;28;20265;-91
2022/09/04 02:03:02;;;;;;;4.70;4.30;;;;;;;17.26;100.00;99468.78;4936950;29;20234;-90
2022/09/04 02:05:43;;;;;;;4.70;4.30;;;;;;;17.26;100.00;99466.06;4938143;29;20247;-89
2022/09/04 02:08:13;;;;;;;4.37;4.07;;;;;;;17.29;100.00;99466.34;4937228;29;20239;-88
2022/09/04 02:11:05;;;;;;;4.63;4.23;;;;;;;17.25;100.00;99473.38;4940541;29;20346;-88
2022/09/04 02:13:55;;;;;;;5.00;4.60;;;;;;;17.24;100.00;99460.09;4945299;29;20238;-88
2022/09/04 02:16:43;;;;;;;5.13;4.73;;;;;;;17.24;100.00;99476.34;4933460;28;20734;-88
2022/09/04 02:19:41;;;;;;;4.60;4.30;;;;;;;17.21;100.00;99474.16;4971932;28;20333;-90
2022/09/04 02:22:18;;;;;;;4.73;4.33;;;;;;;17.14;100.00;99469.81;4925212;29;20622;-90
2022/09/04 02:25:05;;;;;;;4.57;4.27;;;;;;;17.14;100.00;99466.28;4946257;29;20230;-89
2022/09/04 02:27:44;;;;;;;5.20;4.80;;;;;;;17.11;100.00;99464.94;4935644;29;20226;-90
2022/09/04 02:30:12;;;;;;;5.20;4.80;;;;;;;17.12;100.00;99469.25;4949149;29;20249;-89
2022/09/04 02:32:57;;;;;;;4.97;4.57;;;;;;;17.10;100.00;99474.13;4952535;28;20322;-90
2022/09/04 02:35:41;;;;;;;5.00;4.60;;;;;;;17.09;100.00;99480.63;4939635;29;20238;-89
2022/09/04 02:38:35;;;;;;;4.97;4.57;;;;;;;17.11;100.00;99480.34;4915934;28;20743;-88
2022/09/04 02:41:08;;;;;;;5.03;4.63;;;;;;;17.09;100.00;99468.97;4936422;29;20288;-88
2022/09/04 02:43:44;;;;;;;5.30;4.83;;;;;;;17.06;100.00;99472.22;4949640;29;20241;-88
2022/09/04 02:46:23;;;;;;;5.13;4.73;;;;;;;17.01;100.00;99467.59;4937636;28;20233;-88
2022/09/04 02:49:27;;;;;;;5.40;4.90;;;;;;;16.97;100.00;99468.41;4945669;29;20239;-87
2022/09/04 02:52:17;;;;;;;5.20;4.90;;;;;;;16.92;100.00;99469.19;4934358;29;20252;-89
2022/09/04 02:55:07;;;;;;;5.67;5.27;;;;;;;16.90;100.00;99465.09;4955295;29;20230;-88
2022/09/04 02:57:58;;;;;;;5.37;4.97;;;;;;;16.91;100.00;99472.16;4944787;29;20241;-89
2022/09/04 03:00:40;;;;;;;5.90;5.40;;;;;;;16.92;100.00;99471.91;4945311;28;20221;-90
2022/09/04 03:03:20;;;;;;;6.00;5.40;;;;;;;16.91;100.00;99470.25;4936573;29;20313;-90
2022/09/04 03:06:00;;;;;;;5.83;5.43;;;;;;;16.90;100.00;99468.63;4943699;29;20239;-90
2022/09/04 03:08:43;;;;;;;5.70;5.20;;;;;;;16.90;100.00;99479.47;4905266;29;20324;-91
2022/09/04 03:11:25;;;;;;;6.20;5.70;;;;;;;16.86;100.00;99482.97;4939019;29;20325;-91
2022/09/04 03:14:27;;;;;;;6.23;5.73;;;;;;;16.87;100.00;99490.00;4939949;29;20225;-91
2022/09/04 03:16:57;;;;;;;5.80;5.40;;;;;;;16.86;100.00;99496.47;4964733;28;20253;-91
2022/09/04 03:19:36;;;;;;;6.20;5.70;;;;;;;16.84;100.00;99491.34;4942037;29;20783;-91
2022/09/04 03:22:09;;;;;;;6.40;5.80;;;;;;;16.85;100.00;99500.25;4954915;28;20241;-90
2022/09/04 03:24:48;;;;;;;6.17;5.67;;;;;;;16.83;100.00;99494.31;4952544;29;20229;-91
2022/09/04 03:27:15;;;;;;;5.87;5.47;;;;;;;16.86;100.00;99505.41;4936607;29;20764;-91
2022/09/04 03:30:07;;;;;;;5.83;5.33;;;;;;;16.87;100.00;99511.66;4935269;29;20229;-90
2022/09/04 03:32:33;;;;;;;6.00;5.60;;;;;;;16.86;100.00;99513.53;4914713;29;20373;-88
2022/09/04 03:35:09;;;;;;;5.80;5.30;;;;;;;16.88;100.00;99522.22;4945969;28;20257;-95
2022/09/04 03:37:45;;;;;;;5.70;5.30;;;;;;;16.91;100.00;99516.28;4944765;29;20321;-95
2022/09/04 03:40:24;;;;;;;6.33;5.83;;;;;;;16.90;100.00;99514.63;4948043;29;20255;-95
2022/09/04 03:42:59;;;;;;;6.20;5.70;;;;;;;16.90;100.00;99517.34;4953043;28;20222;-90
2022/09/04 03:46:03;;;;;;;5.73;5.37;;;;;;;16.91;100.00;99526.28;4934583;28;20600;-91
2022/09/04 03:48:38;;;;;;;6.67;6.10;;;;;;;16.91;100.00;99527.09;4957882;28;20251;-91
2022/09/04 03:51:24;;;;;;;6.10;5.70;;;;;;;16.94;100.00;99528.44;4936820;28;20232;-91
2022/09/04 03:53:58;;;;;;;5.90;5.50;;;;;;;16.94;100.00;99526.56;4958114;28;20291;-91
2022/09/04 03:56:37;;;;;;;6.37;5.90;;;;;;;16.92;100.00;99522.50;4951238;28;20261;-90
2022/09/04 03:59:14;;;;;;;6.23;5.77;;;;;;;16.93;100.00;99526.84;4931149;28;20245;-91
2022/09/04 04:02:11;;;;;;;6.13;5.63;;;;;;;16.93;100.00;99529.53;4955428;28;20240;-91
2022/09/04 04:05:04;;;;;;;6.37;5.87;;;;;;;16.96;100.00;99534.41;4870429;29;20243;-92
2022/09/04 04:08:12;;;;;;;6.30;5.80;;;;;;;16.95;100.00;99536.31;4922068;29;20245;-91
2022/09/04 04:10:57;;;;;;;6.20;5.70;;;;;;;16.95;100.00;99539.00;4936742;29;20220;-92
2022/09/04 04:13:40;;;;;;;6.60;6.10;;;;;;;16.87;100.00;99542.22;4945410;28;20233;-91
2022/09/04 04:16:29;;;;;;;6.23;5.70;;;;;;;16.88;100.00;99546.56;4929250;28;20276;-92
2022/09/04 04:19:12;;;;;;;6.60;6.00;;;;;;;16.89;100.00;99537.34;4947945;29;20241;-91
2022/09/04 04:21:54;;;;;;;6.20;5.80;;;;;;;16.91;100.00;99545.22;4951074;28;20246;-90
2022/09/04 04:24:44;;;;;;;6.80;6.30;;;;;;;16.90;100.00;99547.09;4956149;28;20255;-90
2022/09/04 04:27:27;;;;;;;6.50;6.00;;;;;;;16.90;100.00;99552.50;4956378;28;20241;-90
2022/09/04 04:29:54;;;;;;;5.80;5.40;;;;;;;16.92;100.00;99550.38;4954207;29;20233;-90
2022/09/04 04:32:26;;;;;;;6.83;6.33;;;;;;;16.89;100.00;99550.09;4956006;28;20232;-90
2022/09/04 04:35:04;;;;;;;7.33;6.73;;;;;;;16.87;100.00;99563.06;4954097;28;20238;-90
2022/09/04 04:37:58;;;;;;;6.77;6.27;;;;;;;16.85;100.00;99560.59;4949306;28;20307;-90
2022/09/04 04:40:24;;;;;;;6.63;6.13;;;;;;;16.87;100.00;99566.59;4952797;28;20302;-90
2022/09/04 04:43:23;;;;;;;6.50;6.00;;;;;;;16.88;100.00;99568.22;4940604;28;20317;-90
2022/09/04 04:45:53;;;;;;;6.70;6.20;;;;;;;16.87;100.00;99576.59;4933027;28;20232;-91
2022/09/04 04:48:41;;;;;;;7.50;6.90;;;;;;;16.83;100.00;99575.47;4954568;28;20303;-90
2022/09/04 04:51:30;;;;;;;7.30;6.83;;;;;;;16.85;100.00;99581.44;4960988;28;20701;-91
2022/09/04 04:54:19;;;;;;;7.13;6.53;;;;;;;16.93;100.00;99583.66;4941381;29;20236;-90
2022/09/04 04:57:01;;;;;;;7.30;6.77;;;;;;;16.92;100.00;99587.44;4940153;28;20287;-90
2022/09/04 04:59:50;;;;;;;7.47;6.87;;;;;;;17.01;100.00;99594.00;4950926;28;20244;-90
2022/09/04 05:02:23;;;;;;;7.70;7.10;;;;;;;17.06;100.00;99591.31;4962838;28;20291;-89
2022/09/04 05:05:27;;;;;;;7.57;7.07;;;;;;;17.10;100.00;99593.22;4945713;28;20236;-91
2022/09/04 05:08:05;;;;;;;7.37;6.77;;;;;;;17.15;100.00;99598.69;4944913;28;20242;-90
2022/09/04 05:10:42;;;;;;;7.50;7.00;;;;;;;17.20;100.00;99606.00;4967690;28;20239;-90
2022/09/04 05:13:25;;;;;;;8.10;7.40;;;;;;;17.25;100.00;99600.63;4945604;28;20229;-90
2022/09/04 05:16:19;;;;;;;8.03;7.43;;;;;;;17.22;100.00;99617.38;4937031;28;20291;-90
2022/09/04 05:18:58;;;;;;;7.37;6.87;;;;;;;17.25;100.00;99619.56;4956959;28;20234;-89
2022/09/04 05:21:25;;;;;;;7.40;6.70;;;;;;;17.27;100.00;99617.41;4936610;28;20230;-90
2022/09/04 05:24:03;;;;;;;7.53;6.97;;;;;;;17.31;100.00;99620.41;4957314;29;20317;-90
2022/09/04 05:26:46;;;;;;;7.80;7.20;;;;;;;17.38;100.00;99627.22;4935425;29;20317;-89
2022/09/04 05:29:27;;;;;;;7.30;6.80;;;;;;;17.39;100.00;99628.84;4954674;29;20234;-89
2022/09/04 05:32:38;;;;;;;7.47;6.87;;;;;;;17.49;100.00;99626.19;4940433;29;20226;-89
2022/09/04 05:35:26;;;;;;;7.67;7.07;;;;;;;17.53;100.00;99631.88;4928383;28;20235;-89
2022/09/04 05:38:08;;;;;;;7.00;6.50;;;;;;;17.60;100.00;99637.88;4938025;28;20238;-88
2022/09/04 05:40:47;;;;;;;7.10;6.60;;;;;;;17.64;100.00;99638.19;4935409;28;20235;-89
2022/09/04 05:43:37;;;;;;;6.97;6.47;;;;;;;17.67;100.00;99648.50;4951951;28;20730;-88
2022/09/04 05:46:17;;;;;;;7.10;6.60;;;;;;;17.72;100.00;99652.03;4950564;28;20229;-87
2022/09/04 05:49:10;;;;;;;8.07;7.37;;;;;;;17.77;100.00;99652.06;4969745;28;20241;-90
2022/09/04 05:52:14;;;;;;;7.50;6.90;;;;;;;17.81;100.00;99649.63;4955299;28;20233;-89
2022/09/04 05:54:47;;;;;;;7.33;6.80;;;;;;;17.82;100.00;99653.97;4952562;28;20265;-88
2022/09/04 05:57:16;;;;;;;7.53;7.03;;;;;;;17.92;100.00;99652.09;4959594;28;20234;-87
2022/09/04 05:59:46;;;;;;;7.40;6.87;;;;;;;17.87;100.00;99652.06;4938951;28;20761;-89
2022/09/04 06:02:56;;;;;;;6.90;6.50;;;;;;;18.12;100.00;99664.06;4935844;28;20234;-89
2022/09/04 06:05:41;;;;;;;7.10;6.40;;;;;;;18.14;100.00;99660.03;4954989;28;20230;-88
2022/09/04 06:08:46;;;;;;;6.37;5.97;;;;;;;18.25;100.00;99668.97;4950315;28;20269;-88
2022/09/04 06:11:38;;;;;;;6.90;6.30;;;;;;;18.36;100.00;99662.47;4945816;28;20241;-90
2022/09/04 06:14:11;;;;;;;6.50;6.10;;;;;;;18.43;100.00;99663.84;4951061;28;20271;-89
2022/09/04 06:16:59;;;;;;;7.27;6.67;;;;;;;18.61;100.00;99664.44;4951577;28;20234;-89
2022/09/04 06:20:07;;;;;;;7.07;6.57;;;;;;;18.75;100.00;99657.38;4943552;28;20241;-90
2022/09/04 06:22:56;;;;;;;7.17;6.57;;;;;;;18.86;100.00;99659.81;4934038;28;20325;-89
2022/09/04 06:25:48;;;;;;;7.30;6.80;;;;;;;18.84;100.00;99670.13;4953166;28;20233;-90
2022/09/04 06:28:36;;;;;;;6.60;6.20;;;;;;;18.96;100.00;99669.84;4938991;28;20253;-89
2022/09/04 06:31:18;;;;;;;6.40;6.00;;;;;;;19.04;100.00;99661.13;4955692;28;20693;-90
2022/09/04 06:34:24;;;;;;;6.77;6.27;;;;;;;19.23;100.00;99669.53;4944847;28;20316;-90
2022/09/04 06:37:07;;;;;;;5.30;4.90;;;;;;;19.40;100.00;99671.94;4915126;29;20232;-90
2022/09/04 06:39:56;;;;;;;4.33;3.87;;;;;;;19.55;100.00;99675.44;4949542;28;20246;-90
2022/09/04 06:42:50;;;;;;;4.50;4.20;;;;;;;19.61;100.00;99666.19;4955950;28;20237;-89
2022/09/04 06:45:41;;;;;;;4.97;4.57;;;;;;;19.70;100.00;99666.41;4936017;28;20228;-89
2022/09/04 06:48:22;;;;;;;4.50;4.20;;;;;;;19.76;100.00;99668.03;4945665;28;20233;-88
2022/09/04 06:50:58;;;;;;;4.23;3.93;;;;;;;19.88;100.00;99673.94;4948000;28;20265;-89
2022/09/04 06:53:55;;;;;;;4.40;4.00;;;;;;;20.26;100.00;99677.00;4947836;28;20243;-89
2022/09/04 06:56:54;;;;;;;4.10;3.70;;;;;;;20.51;100.00;99685.03;4924893;28;20233;-89
2022/09/04 06:59:33;;;;;;;4.50;4.10;;;;;;;20.58;100.00;99693.66;4948592;28;20324;-89
2022/09/04 07:02:49;;;;;;;4.73;4.37;;;;;;;20.41;100.00;99695.97;4955294;28;20586;-86
2022/09/04 07:05:48;;;;;;;4.40;4.10;;;;;;;20.25;100.00;99697.94;4915158;28;20247;-89
2022/09/04 07:08:40;;;;;;;4.43;4.13;;;;;;;20.26;100.00;99699.56;4927623;28;20247;-90
2022/09/04 07:11:16;;;;;;;4.20;3.90;;;;;;;20.32;100.00;99708.56;4955360;28;20237;-91
2022/09/04 07:13:46;;;;;;;4.30;4.00;;;;;;;20.42;100.00;99713.94;4954790;28;20231;-87
2022/09/04 07:16:33;;;;;;;4.53;4.20;;;;;;;20.67;100.00;99714.56;4956912;28;20230;-88
2022/09/04 07:19:37;;;;;;;5.17;4.67;;;;;;;21.15;100.00;99713.94;4935011;28;20686;-88
2022/09/04 07:22:22;;;;;;;4.33;3.93;;;;;;;21.27;100.00;99712.47;4952500;28;20230;-87
2022/09/04 07:24:55;;;;;;;4.43;4.07;;;;;;;21.47;100.00;99709.50;4939100;28;20611;-88
2022/09/04 07:27:35;;;;;;;4.00;3.77;;;;;;;21.37;100.00;99717.78;4930158;29;20228;-88
2022/09/04 07:30:09;;;;;;;3.80;3.57;;;;;;;21.43;100.00;99719.38;4952819;28;20235;-87
2022/09/04 07:32:48;;;;;;;3.93;3.63;;;;;;;21.56;100.00;99725.25;4944820;28;20240;-88
2022/09/04 07:36:03;;;;;;;4.20;3.90;;;;;;;21.77;100.00;99732.91;4914908;29;20699;-87
2022/09/04 07:38:56;;;;;;;5.00;4.70;;;;;;;22.27;100.00;99730.66;4915314;29;20243;-88
2022/09/04 07:41:30;;;;;;;4.47;4.17;;;;;;;22.19;100.00;99737.59;4915364;29;20286;-87
2022/09/04 07:44:13;;;;;;;4.70;4.40;;;;;;;22.28;100.00;99741.28;4932132;28;20289;-86
2022/09/04 07:46:52;;;;;;;4.90;4.60;;;;;;;22.19;100.00;99742.25;4923445;28;20228;-87
2022/09/04 07:49:29;;;;;;;5.05;4.65;;;;;;;22.39;100.00;99744.72;4929930;29;20295;-86
2022/09/04 07:52:17;;;;;;;4.82;4.43;;;;;;;22.50;100.00;99750.81;4943063;28;20698;-85
2022/09/04 07:55:11;;;;;;;4.68;4.38;;;;;;;22.61;100.00;99757.75;4955725;28;20250;-86
2022/09/04 07:57:47;;;;;;;5.97;5.57;;;;;;;22.64;100.00;99754.44;4949170;28;20239;-87
2022/09/04 08:00:21;;;;;;;5.43;4.93;;;;;;;22.58;100.00;99759.19;4951701;28;20232;-87
2022/09/04 08:03:24;;;;;;;4.47;4.25;;;;;;;22.49;100.00;99754.66;4940796;28;20228;-87
2022/09/04 08:05:57;;;;;;;4.90;4.40;;;;;;;22.59;100.00;99754.50;4949658;28;20306;-87
2022/09/04 08:08:35;;;;;;;4.75;4.20;;;;;;;22.45;100.00;99762.63;4922428;28;20258;-87
2022/09/04 08:11:30;;;;;;;5.00;4.28;;;;;;;22.35;100.00;99755.38;4955452;28;20287;-86
2022/09/04 08:14:26;;;;;;;4.55;4.25;;;;;;;22.39;100.00;99759.16;4948890;28;20242;-87
2022/09/04 08:17:19;;;;;;;3.95;3.65;;;;;;;22.22;100.00;99750.66;4934716;28;20224;-87
2022/09/04 08:20:03;;;;;;;4.00;3.70;;;;;;;22.20;100.00;99762.97;4945661;28;20239;-89
2022/09/04 08:22:33;;;;;;;3.50;3.30;;;;;;;22.25;100.00;99757.44;4938790;29;20224;-89
2022/09/04 08:25:09;;;;;;;3.95;3.65;;;;;;;22.54;100.00;99765.50;4953147;28;20240;-87
2022/09/04 08:27:58;;;;;;;3.60;3.40;;;;;;;22.36;100.00;99767.09;4927613;28;20236;-88
2022/09/04 08:30:32;;;;;;;3.72;3.45;;;;;;;22.52;100.00;99759.53;4926418;29;20242;-88
2022/09/04 08:33:17;;;;;;;3.50;3.30;;;;;;;22.51;100.00;99769.63;4916023;29;20248;-90
2022/09/04 08:36:15;;;;;;;3.20;3.00;;;;;;;22.38;100.00;99779.38;4955926;28;20232;-88
2022/09/04 08:38:54;;;;;;;3.58;3.38;;;;;;;22.16;100.00;99783.75;4919734;28;20250;-88
2022/09/04 08:41:30;;;;;;;3.70;3.40;;;;;;;22.66;100.00;99790.47;4927881;29;20288;-88
2022/09/04 08:44:15;;;;;;;3.97;3.67;;;;;;;22.37;96.12;99787.84;4936872;28;20248;-87
2022/09/04 08:46:54;;;;;;;3.40;3.20;;;;;;;23.46;93.73;99787.59;4952274;28;20239;-88
2022/09/04 08:49:52;;;;;;;3.65;3.35;;;;;;;23.46;89.05;99787.59;4954428;28;20251;-88
2022/09/04 08:52:44;;;;;;;3.60;3.30;;;;;;;24.39;83.33;99787.16;4942103;28;20240;-90
2022/09/04 08:55:45;;;;;;;3.28;2.97;;;;;;;24.90;76.11;99786.84;4947113;28;20816;-87
2022/09/04 08:58:46;;;;;;;3.00;2.80;;;;;;;25.20;75.13;99788.00;4947148;29;20300;-87
2022/09/04 09:01:13;;;;;;;4.38;3.28;;;;;;;25.16;73.17;99792.50;4947109;28;20285;-87
2022/09/04 09:03:58;;;;;;;3.30;2.90;;;;;;;25.16;71.32;99783.47;4951715;28;20300;-87
2022/09/04 09:06:28;;;;;;;2.80;2.60;;;;;;;23.38;83.68;99782.75;4926979;28;20305;-87
2022/09/04 09:08:55;;;;;;;2.78;2.53;;;;;;;24.48;80.11;99776.28;4943446;28;20323;-87
2022/09/04 09:11:50;;;;;;;2.65;2.45;;;;;;;25.22;74.12;99768.53;4956493;29;20292;-87
2022/09/04 09:14:16;;;;;;;2.60;2.40;;;;;;;25.54;66.54;99770.16;4954698;28;20292;-86
2022/09/04 09:16:55;;;;;;;2.35;2.15;;;;;;;25.47;64.53;99767.06;4959238;28;20283;-86
2022/09/04 09:19:47;;;;;;;2.55;2.45;;;;;;;25.75;67.07;99769.34;4942539;28;20244;-88
2022/09/04 09:22:37;;;;;;;2.53;2.28;;;;;;;25.56;67.01;99768.75;4966441;28;20240;-87
2022/09/04 09:25:14;;;;;;;2.20;2.00;;;;;;;26.17;62.89;99773.38;4958404;28;20225;-85
2022/09/04 09:28:12;;;;;;;2.60;1.98;;;;;;;26.69;58.08;99779.75;4967439;28;20228;-87
2022/09/04 09:30:56;;;;;;;3.17;2.50;;;;;;;26.76;59.74;99782.03;4958636;28;20266;-86
2022/09/04 09:33:54;;;;;;;2.67;2.47;;;;;;;26.66;59.73;99785.91;4973082;28;20385;-87
2022/09/04 09:36:34;;;;;;;2.67;2.13;;;;;;;26.24;61.89;99783.88;4934971;28;20251;-87
2022/09/04 09:39:16;;;;;;;2.60;2.42;;;;;;;25.66;64.86;99781.41;4938062;29;20291;-86
2022/09/04 09:42:20;;;;;;;3.00;2.80;;;;;;;25.29;66.05;99785.34;4939488;29;20236;-86
2022/09/04 09:45:25;;;;;;;2.72;2.53;;;;;;;25.43;68.92;99781.38;4938983;28;20240;-86
2022/09/04 09:48:17;;;;;;;2.90;2.38;;;;;;;26.17;63.02;99780.78;4895981;28;20765;-88
2022/09/04 09:50:55;;;;;;;2.55;2.35;;;;;;;25.08;67.81;99782.31;4961958;28;20243;-87
2022/09/04 09:53:21;;;;;;;2.50;2.30;;;;;;;25.06;66.85;99776.31;4924287;29;20699;-88
2022/09/04 09:56:07;;;;;;;2.25;2.10;;;;;;;25.84;63.66;99783.09;4935807;28;20232;-87
2022/09/04 09:59:17;;;;;;;2.30;2.20;;;;;;;26.90;58.08;99788.22;4953554;28;20243;-87
2022/09/04 10:02:32;;;;;;;2.10;2.00;;;;;;;27.07;57.07;99784.63;4951672;28;20239;-87
2022/09/04 10:04:58;;;;;;;2.50;2.20;;;;;;;26.62;58.76;99786.88;4932724;28;20239;-87
2022/09/04 10:07:37;;;;;;;2.53;2.33;;;;;;;25.32;63.53;99784.72;4956900;28;20228;-88
2022/09/04 10:10:20;;;;;;;2.28;2.17;;;;;;;25.61;61.68;99784.28;4969401;28;20711;-86
2022/09/04 10:13:23;;;;;;;2.60;2.40;;;;;;;25.72;58.96;99778.19;4972490;28;20240;-88
2022/09/04 10:16:02;;;;;;;2.38;2.17;;;;;;;25.91;61.41;99769.72;4948807;28;20220;-87
2022/09/04 10:18:51;;;;;;;2.05;1.85;;;;;;;26.50;57.97;99776.50;4947555;28;20692;-87
2022/09/04 10:21:51;;;;;;;2.42;2.30;;;;;;;26.01;60.46;99774.09;4945392;28;20239;-89
2022/09/04 10:24:26;;;;;;;2.60;2.40;;;;;;;24.71;68.16;99771.66;4940760;28;20267;-91
2022/09/04 10:27:28;;;;;;;3.22;2.75;;;;;;;25.81;65.30;99775.47;4948242;29;20234;-91
2022/09/04 10:30:13;;;;;;;2.22;2.13;;;;;;;26.13;67.82;99774.31;4948104;28;20240;-91
2022/09/04 10:32:58;;;;;;;2.35;2.20;;;;;;;26.53;66.84;99780.56;4932329;28;20243;-91
2022/09/04 10:35:40;;;;;;;2.47;2.20;;;;;;;26.71;64.22;99779.44;4947952;28;20236;-89
2022/09/04 10:38:14;;;;;;;2.95;2.67;;;;;;;25.53;71.22;99788.53;4928759;29;20236;-91
2022/09/04 10:41:29;;;;;;;2.60;2.40;;;;;;;25.64;73.95;99791.88;4933205;28;20243;-90
2022/09/04 10:44:06;;;;;;;2.70;2.50;;;;;;;26.23;69.82;99790.50;4930351;29;20249;-90
2022/09/04 10:47:17;;;;;;;3.17;2.72;;;;;;;24.95;73.26;99788.66;4912209;29;20255;-89
2022/09/04 10:49:43;;;;;;;2.97;2.78;;;;;;;24.79;77.27;99784.59;4933488;29;20234;-90
2022/09/04 10:52:23;;;;;;;3.08;2.88;;;;;;;24.69;81.05;99788.38;4905676;29;20664;-90
2022/09/04 10:55:26;;;;;;;3.10;2.90;;;;;;;24.78;84.91;99786.53;4934369;29;20241;-90
2022/09/04 10:57:53;;;;;;;3.20;3.00;;;;;;;24.88;77.98;99786.34;4924796;29;20736;-90
2022/09/04 11:00:21;;;;;;;2.90;2.70;;;;;;;24.72;78.68;99792.47;4932902;29;20325;-91
2022/09/04 11:02:55;;;;;;;3.53;3.22;;;;;;;24.42;81.43;99797.47;4928713;29;20240;-90
2022/09/04 11:05:44;;;;;;;3.00;2.80;;;;;;;24.90;83.03;99797.81;4933483;29;20241;-89
2022/09/04 11:08:34;;;;;;;3.25;3.00;;;;;;;25.44;82.51;99788.50;4926659;29;20739;-89
2022/09/04 11:11:39;;;;;;;2.63;2.50;;;;;;;25.79;74.52;99789.53;4930179;29;20734;-90
2022/09/04 11:14:27;;;;;;;2.70;2.50;;;;;;;25.54;75.05;99795.69;4936114;29;20788;-90
2022/09/04 11:17:32;;;;;;;2.80;2.60;;;;;;;24.11;78.62;99796.47;4893314;29;20232;-90
2022/09/04 11:20:32;;;;;;;3.25;2.53;;;;;;;24.53;76.58;99796.16;4926290;29;20236;-91
2022/09/04 11:23:20;;;;;;;2.70;2.50;;;;;;;25.29;71.81;99796.31;4931958;29;20237;-91
2022/09/04 11:26:09;;;;;;;3.00;2.80;;;;;;;25.20;71.08;99792.69;4918610;29;20242;-91
2022/09/04 11:29:01;;;;;;;2.67;2.47;;;;;;;25.26;75.75;99792.25;4931259;29;20238;-91
2022/09/04 11:31:34;;;;;;;2.80;2.60;;;;;;;25.53;72.79;99791.28;4924566;29;20253;-90
2022/09/04 11:34:32;;;;;;;2.70;2.50;;;;;;;26.00;71.59;99795.25;4929795;29;20245;-92
2022/09/04 11:37:14;;;;;;;2.83;2.63;;;;;;;24.92;71.80;99797.47;4930054;29;20235;-91
2022/09/04 11:40:03;;;;;;;2.88;2.67;;;;;;;26.11;65.55;99793.03;4908424;29;20222;-90
2022/09/04 11:43:05;;;;;;;3.00;2.80;;;;;;;25.44;69.36;99788.50;4924632;29;20234;-90
2022/09/04 11:45:47;;;;;;;2.92;2.72;;;;;;;26.27;65.29;99791.47;4930256;29;20817;-90
2022/09/04 11:48:47;;;;;;;2.80;2.60;;;;;;;27.21;59.46;99784.44;4918946;29;20237;-91
2022/09/04 11:51:43;;;;;;;2.90;2.45;;;;;;;27.38;57.35;99784.44;4928898;29;20226;-88
2022/09/04 11:54:27;;;;;;;2.83;2.63;;;;;;;26.70;59.21;99780.56;4915752;29;20233;-87
2022/09/04 11:57:04;;;;;;;2.95;2.63;;;;;;;27.30;57.13;99780.56;4930686;29;20260;-86
2022/09/04 11:59:51;;;;;;;2.67;2.47;;;;;;;27.45;56.93;99780.03;4911610;29;20217;-85
2022/09/04 12:02:55;;;;;;;2.83;2.63;;;;;;;27.64;55.00;99787.94;4934426;28;20239;-86
2022/09/04 12:05:49;;;;;;;2.90;2.70;;;;;;;27.22;58.19;99789.63;4920339;29;20278;-88
2022/09/04 12:08:34;;;;;;;3.05;2.40;;;;;;;25.17;67.77;99794.13;4924126;29;20226;-89
2022/09/04 12:11:35;;;;;;;2.78;2.50;;;;;;;25.60;65.57;99799.13;4917054;29;20281;-89
2022/09/04 12:14:20;;;;;;;3.00;2.75;;;;;;;25.30;67.38;99798.72;4929126;29;20270;-85
2022/09/04 12:17:24;;;;;;;3.28;2.97;;;;;;;26.76;62.25;99797.72;4925084;29;20694;-88
2022/09/04 12:19:57;;;;;;;2.90;2.55;;;;;;;27.16;59.11;99794.50;4907770;29;20246;-91
2022/09/04 12:22:53;;;;;;;2.60;2.40;;;;;;;27.35;58.52;99796.88;4921365;29;20233;-91
2022/09/04 12:25:42;;;;;;;2.60;2.40;;;;;;;27.15;57.93;99800.34;4908660;29;20236;-90
2022/09/04 12:28:56;;;;;;;2.88;2.67;;;;;;;26.47;62.50;99801.88;4912507;29;20323;-90
2022/09/04 12:31:50;;;;;;;2.22;2.13;;;;;;;27.49;55.27;99786.53;4887600;29;20724;-90
2022/09/04 12:34:32;;;;;;;2.28;2.17;;;;;;;27.94;54.10;99799.84;4910930;29;20226;-90
2022/09/04 12:37:10;;;;;;;2.88;2.67;;;;;;;28.10;52.66;99811.09;4915459;29;20229;-91
2022/09/04 12:39:55;;;;;;;2.65;2.45;;;;;;;28.39;51.12;99803.69;4927465;29;20234;-90
2022/09/04 12:42:41;;;;;;;2.78;2.55;;;;;;;27.56;53.18;99797.88;4930181;29;20236;-90
2022/09/04 12:45:45;;;;;;;2.60;2.40;;;;;;;28.04;51.89;99800.25;4927691;29;20228;-91
2022/09/04 12:48:31;;;;;;;2.60;2.40;;;;;;;28.01;49.44;99797.38;4931334;28;20243;-91
2022/09/04 12:51:23;;;;;;;2.50;2.30;;;;;;;28.49;49.42;99801.66;4940369;29;20229;-89